sensor_id;sensor_type;location;lat;lon;timestamp;pressure;altitude;pressure_sealevel;temperature;humidity
78892;BME280;68368;51.728;5.248;2024-01-30T00:00:17;102632.79;;;7.03;100.00
78892;BME280;68368;51.728;5.248;2024-01-30T00:02:20;102627.76;;;7.01;100.00
78892;BME280;68368;51.728;5.248;2024-01-30T00:04:24;102630.67;;;6.98;100.00
78892;BME280;68368;51.728;5.248;2024-01-30T00:06:26;102625.95;;;6.95;100.00
78892;BME280;68368;51.728;5.248;2024-01-30T00:08:29;102628.88;;;6.92;100.00
78892;BME280;68368;51.728;5.248;2024-01-30T00:10:33;102624.90;;;6.89;100.00
78892;BME280;68368;51.728;5.248;2024-01-30T00:12:37;102627.47;;;6.87;100.00
78892;BME280;68368;51.728;5.248;2024-01-30T00:14:41;102625.81;;;6.85;100.00
78892;BME280;68368;51.728;5.248;2024-01-30T00:16:44;102621.48;;;6.82;100.00
78892;BME280;68368;51.728;5.248;2024-01-30T00:18:51;102619.11;;;6.80;100.00
78892;BME280;68368;51.728;5.248;2024-01-30T00:20:54;102616.08;;;6.78;100.00
78892;BME280;68368;51.728;5.248;2024-01-30T00:22:57;102616.88;;;6.77;100.00
78892;BME280;68368;51.728;5.248;2024-01-30T00:25:01;102617.65;;;6.74;100.00
78892;BME280;68368;51.728;5.248;2024-01-30T00:27:05;102617.21;;;6.71;100.00
78892;BME280;68368;51.728;5.248;2024-01-30T00:29:08;102612.85;;;6.67;100.00
78892;BME280;68368;51.728;5.248;2024-01-30T00:31:12;102613.23;;;6.63;100.00
78892;BME280;68368;51.728;5.248;2024-01-30T00:33:14;102613.00;;;6.61;100.00
78892;BME280;68368;51.728;5.248;2024-01-30T00:35:17;102606.54;;;6.58;100.00
78892;BME280;68368;51.728;5.248;2024-01-30T00:37:23;102609.67;;;6.57;100.00
78892;BME280;68368;51.728;5.248;2024-01-30T00:39:25;102606.46;;;6.56;100.00
78892;BME280;68368;51.728;5.248;2024-01-30T00:41:29;102605.02;;;6.54;100.00
78892;BME280;68368;51.728;5.248;2024-01-30T00:43:32;102602.30;;;6.53;100.00
78892;BME280;68368;51.728;5.248;2024-01-30T00:45:35;102600.83;;;6.51;100.00
78892;BME280;68368;51.728;5.248;2024-01-30T00:47:38;102594.55;;;6.48;100.00
78892;BME280;68368;51.728;5.248;2024-01-30T00:49:41;102596.61;;;6.47;100.00
78892;BME280;68368;51.728;5.248;2024-01-30T00:51:45;102594.30;;;6.46;100.00
78892;BME280;68368;51.728;5.248;2024-01-30T00:53:48;102598.29;;;6.45;100.00
78892;BME280;68368;51.728;5.248;2024-01-30T00:55:51;102594.76;;;6.44;100.00
78892;BME280;68368;51.728;5.248;2024-01-30T00:57:54;102598.23;;;6.43;100.00
78892;BME280;68368;51.728;5.248;2024-01-30T00:59:58;102600.66;;;6.41;100.00
78892;BME280;68368;51.728;5.248;2024-01-30T01:02:01;102600.59;;;6.40;100.00
78892;BME280;68368;51.728;5.248;2024-01-30T01:04:12;102600.02;;;6.39;100.00
78892;BME280;68368;51.728;5.248;2024-01-30T01:06:15;102603.92;;;6.39;100.00
78892;BME280;68368;51.728;5.248;2024-01-30T01:08:18;102603.62;;;6.40;100.00
78892;BME280;68368;51.728;5.248;2024-01-30T01:10:23;102600.67;;;6.42;100.00
78892;BME280;68368;51.728;5.248;2024-01-30T01:12:27;102599.48;;;6.43;100.00
78892;BME280;68368;51.728;5.248;2024-01-30T01:14:30;102595.81;;;6.44;100.00
78892;BME280;68368;51.728;5.248;2024-01-30T01:16:34;102590.24;;;6.46;100.00
78892;BME280;68368;51.728;5.248;2024-01-30T01:18:37;102588.69;;;6.47;100.00
78892;BME280;68368;51.728;5.248;2024-01-30T01:20:41;102588.17;;;6.48;100.00
78892;BME280;68368;51.728;5.248;2024-01-30T01:22:46;102586.05;;;6.47;100.00
78892;BME280;68368;51.728;5.248;2024-01-30T01:24:49;102583.40;;;6.47;100.00
78892;BME280;68368;51.728;5.248;2024-01-30T01:26:52;102584.98;;;6.47;100.00
78892;BME280;68368;51.728;5.248;2024-01-30T01:28:56;102582.71;;;6.48;100.00
78892;BME280;68368;51.728;5.248;2024-01-30T01:30:59;102581.66;;;6.48;100.00
78892;BME280;68368;51.728;5.248;2024-01-30T01:33:02;102582.39;;;6.48;100.00
78892;BME280;68368;51.728;5.248;2024-01-30T01:35:06;102576.23;;;6.49;100.00
78892;BME280;68368;51.728;5.248;2024-01-30T01:37:10;102578.89;;;6.49;100.00
78892;BME280;68368;51.728;5.248;2024-01-30T01:39:14;102577.34;;;6.50;100.00
78892;BME280;68368;51.728;5.248;2024-01-30T01:41:17;102576.68;;;6.52;100.00
78892;BME280;68368;51.728;5.248;2024-01-30T01:43:19;102577.42;;;6.53;100.00
78892;BME280;68368;51.728;5.248;2024-01-30T01:45:27;102569.71;;;6.54;100.00
78892;BME280;68368;51.728;5.248;2024-01-30T01:47:30;102571.67;;;6.55;100.00
78892;BME280;68368;51.728;5.248;2024-01-30T01:49:36;102572.94;;;6.56;100.00
78892;BME280;68368;51.728;5.248;2024-01-30T01:51:39;102569.44;;;6.57;100.00
78892;BME280;68368;51.728;5.248;2024-01-30T01:53:44;102568.11;;;6.59;100.00
78892;BME280;68368;51.728;5.248;2024-01-30T01:55:48;102565.90;;;6.62;100.00
78892;BME280;68368;51.728;5.248;2024-01-30T01:57:51;102560.84;;;6.64;100.00
78892;BME280;68368;51.728;5.248;2024-01-30T01:59:54;102563.41;;;6.66;100.00
78892;BME280;68368;51.728;5.248;2024-01-30T02:01:58;102558.16;;;6.68;100.00
78892;BME280;68368;51.728;5.248;2024-01-30T02:04:01;102561.20;;;6.69;100.00
78892;BME280;68368;51.728;5.248;2024-01-30T02:06:05;102552.96;;;6.70;100.00
78892;BME280;68368;51.728;5.248;2024-01-30T02:08:09;102550.14;;;6.71;100.00
78892;BME280;68368;51.728;5.248;2024-01-30T02:10:12;102547.52;;;6.71;100.00
78892;BME280;68368;51.728;5.248;2024-01-30T02:12:15;102548.45;;;6.72;100.00
78892;BME280;68368;51.728;5.248;2024-01-30T02:14:19;102548.98;;;6.73;100.00
78892;BME280;68368;51.728;5.248;2024-01-30T02:16:22;102547.74;;;6.73;100.00
78892;BME280;68368;51.728;5.248;2024-01-30T02:18:27;102559.62;;;6.74;100.00
78892;BME280;68368;51.728;5.248;2024-01-30T02:20:32;102561.76;;;6.75;100.00
78892;BME280;68368;51.728;5.248;2024-01-30T02:22:38;102558.22;;;6.75;100.00
78892;BME280;68368;51.728;5.248;2024-01-30T02:24:42;102557.85;;;6.74;100.00
78892;BME280;68368;51.728;5.248;2024-01-30T02:26:45;102557.17;;;6.75;100.00
78892;BME280;68368;51.728;5.248;2024-01-30T02:28:48;102559.66;;;6.75;100.00
78892;BME280;68368;51.728;5.248;2024-01-30T02:30:51;102560.91;;;6.76;100.00
78892;BME280;68368;51.728;5.248;2024-01-30T02:32:54;102558.95;;;6.75;100.00
78892;BME280;68368;51.728;5.248;2024-01-30T02:34:57;102559.13;;;6.75;100.00
78892;BME280;68368;51.728;5.248;2024-01-30T02:37:00;102554.19;;;6.75;100.00
78892;BME280;68368;51.728;5.248;2024-01-30T02:39:03;102553.98;;;6.75;100.00
78892;BME280;68368;51.728;5.248;2024-01-30T02:41:08;102552.56;;;6.74;100.00
78892;BME280;68368;51.728;5.248;2024-01-30T02:43:11;102547.45;;;6.75;100.00
78892;BME280;68368;51.728;5.248;2024-01-30T02:45:15;102540.54;;;6.74;100.00
78892;BME280;68368;51.728;5.248;2024-01-30T02:47:18;102535.05;;;6.74;100.00
78892;BME280;68368;51.728;5.248;2024-01-30T02:49:24;102532.05;;;6.74;100.00
78892;BME280;68368;51.728;5.248;2024-01-30T02:51:27;102538.23;;;6.74;100.00
78892;BME280;68368;51.728;5.248;2024-01-30T02:53:30;102537.73;;;6.75;100.00
78892;BME280;68368;51.728;5.248;2024-01-30T02:55:33;102535.84;;;6.76;100.00
78892;BME280;68368;51.728;5.248;2024-01-30T02:57:37;102530.91;;;6.76;100.00
78892;BME280;68368;51.728;5.248;2024-01-30T02:59:40;102531.86;;;6.78;100.00
78892;BME280;68368;51.728;5.248;2024-01-30T03:01:45;102531.91;;;6.80;100.00
78892;BME280;68368;51.728;5.248;2024-01-30T03:03:50;102527.39;;;6.82;100.00
78892;BME280;68368;51.728;5.248;2024-01-30T03:05:53;102529.06;;;6.85;100.00
78892;BME280;68368;51.728;5.248;2024-01-30T03:07:56;102522.44;;;6.87;100.00
78892;BME280;68368;51.728;5.248;2024-01-30T03:09:59;102524.60;;;6.89;100.00
78892;BME280;68368;51.728;5.248;2024-01-30T03:12:03;102523.81;;;6.91;100.00
78892;BME280;68368;51.728;5.248;2024-01-30T03:14:06;102513.69;;;6.95;100.00
78892;BME280;68368;51.728;5.248;2024-01-30T03:16:09;102504.95;;;6.98;100.00
78892;BME280;68368;51.728;5.248;2024-01-30T03:18:12;102512.48;;;7.02;100.00
78892;BME280;68368;51.728;5.248;2024-01-30T03:20:15;102516.46;;;7.05;100.00
78892;BME280;68368;51.728;5.248;2024-01-30T03:22:19;102522.00;;;7.07;100.00
78892;BME280;68368;51.728;5.248;2024-01-30T03:24:22;102518.52;;;7.09;100.00
78892;BME280;68368;51.728;5.248;2024-01-30T03:26:25;102519.98;;;7.11;100.00
78892;BME280;68368;51.728;5.248;2024-01-30T03:28:28;102516.50;;;7.12;100.00
78892;BME280;68368;51.728;5.248;2024-01-30T03:30:31;102522.58;;;7.14;100.00
78892;BME280;68368;51.728;5.248;2024-01-30T03:32:35;102523.70;;;7.16;100.00
78892;BME280;68368;51.728;5.248;2024-01-30T03:34:39;102519.00;;;7.18;100.00
78892;BME280;68368;51.728;5.248;2024-01-30T03:36:44;102521.20;;;7.21;100.00
78892;BME280;68368;51.728;5.248;2024-01-30T03:38:54;102525.36;;;7.24;100.00
78892;BME280;68368;51.728;5.248;2024-01-30T03:40:59;102517.31;;;7.26;100.00
78892;BME280;68368;51.728;5.248;2024-01-30T03:43:04;102519.51;;;7.29;100.00
78892;BME280;68368;51.728;5.248;2024-01-30T03:45:10;102515.69;;;7.31;100.00
78892;BME280;68368;51.728;5.248;2024-01-30T03:47:13;102515.20;;;7.33;100.00
78892;BME280;68368;51.728;5.248;2024-01-30T03:49:18;102522.83;;;7.34;100.00
78892;BME280;68368;51.728;5.248;2024-01-30T03:51:21;102517.55;;;7.34;100.00
78892;BME280;68368;51.728;5.248;2024-01-30T03:53:27;102523.73;;;7.35;100.00
78892;BME280;68368;51.728;5.248;2024-01-30T03:55:30;102520.02;;;7.34;100.00
78892;BME280;68368;51.728;5.248;2024-01-30T03:57:34;102522.85;;;7.35;100.00
78892;BME280;68368;51.728;5.248;2024-01-30T03:59:37;102524.97;;;7.35;100.00
78892;BME280;68368;51.728;5.248;2024-01-30T04:01:40;102522.86;;;7.35;100.00
78892;BME280;68368;51.728;5.248;2024-01-30T04:03:46;102516.54;;;7.36;100.00
78892;BME280;68368;51.728;5.248;2024-01-30T04:05:49;102514.80;;;7.37;100.00
78892;BME280;68368;51.728;5.248;2024-01-30T04:07:53;102516.05;;;7.37;100.00
78892;BME280;68368;51.728;5.248;2024-01-30T04:09:57;102514.11;;;7.38;99.99
78892;BME280;68368;51.728;5.248;2024-01-30T04:12:03;102514.71;;;7.40;100.00
78892;BME280;68368;51.728;5.248;2024-01-30T04:14:09;102511.05;;;7.42;100.00
78892;BME280;68368;51.728;5.248;2024-01-30T04:16:21;102513.55;;;7.42;99.90
78892;BME280;68368;51.728;5.248;2024-01-30T04:18:25;102510.02;;;7.42;99.98
78892;BME280;68368;51.728;5.248;2024-01-30T04:20:28;102504.73;;;7.43;99.95
78892;BME280;68368;51.728;5.248;2024-01-30T04:22:31;102499.63;;;7.44;99.88
78892;BME280;68368;51.728;5.248;2024-01-30T04:24:34;102497.38;;;7.45;99.80
78892;BME280;68368;51.728;5.248;2024-01-30T04:26:38;102491.23;;;7.47;99.96
78892;BME280;68368;51.728;5.248;2024-01-30T04:28:43;102486.17;;;7.49;99.94
78892;BME280;68368;51.728;5.248;2024-01-30T04:30:47;102489.42;;;7.51;99.96
78892;BME280;68368;51.728;5.248;2024-01-30T04:32:52;102496.21;;;7.54;99.87
78892;BME280;68368;51.728;5.248;2024-01-30T04:34:58;102506.17;;;7.56;99.91
78892;BME280;68368;51.728;5.248;2024-01-30T04:37:01;102509.95;;;7.58;99.91
78892;BME280;68368;51.728;5.248;2024-01-30T04:39:04;102508.77;;;7.60;99.87
78892;BME280;68368;51.728;5.248;2024-01-30T04:41:08;102509.31;;;7.61;99.86
78892;BME280;68368;51.728;5.248;2024-01-30T04:43:11;102507.08;;;7.62;99.80
78892;BME280;68368;51.728;5.248;2024-01-30T04:45:14;102498.27;;;7.64;99.58
78892;BME280;68368;51.728;5.248;2024-01-30T04:47:18;102496.33;;;7.64;99.65
78892;BME280;68368;51.728;5.248;2024-01-30T04:49:21;102500.41;;;7.64;99.53
78892;BME280;68368;51.728;5.248;2024-01-30T04:51:24;102499.55;;;7.66;99.41
78892;BME280;68368;51.728;5.248;2024-01-30T04:53:27;102499.73;;;7.65;99.59
78892;BME280;68368;51.728;5.248;2024-01-30T04:55:30;102500.42;;;7.65;99.52
78892;BME280;68368;51.728;5.248;2024-01-30T04:57:36;102491.05;;;7.65;99.50
78892;BME280;68368;51.728;5.248;2024-01-30T04:59:39;102493.66;;;7.63;99.23
78892;BME280;68368;51.728;5.248;2024-01-30T05:01:43;102493.84;;;7.64;99.26
78892;BME280;68368;51.728;5.248;2024-01-30T05:03:48;102492.42;;;7.63;99.23
78892;BME280;68368;51.728;5.248;2024-01-30T05:05:51;102485.91;;;7.64;99.14
78892;BME280;68368;51.728;5.248;2024-01-30T05:07:55;102485.39;;;7.65;99.18
78892;BME280;68368;51.728;5.248;2024-01-30T05:10:00;102485.80;;;7.66;99.04
78892;BME280;68368;51.728;5.248;2024-01-30T05:12:04;102480.14;;;7.67;99.26
78892;BME280;68368;51.728;5.248;2024-01-30T05:14:07;102480.72;;;7.68;99.16
78892;BME280;68368;51.728;5.248;2024-01-30T05:16:11;102478.40;;;7.68;98.98
78892;BME280;68368;51.728;5.248;2024-01-30T05:18:15;102477.56;;;7.69;99.17
78892;BME280;68368;51.728;5.248;2024-01-30T05:20:19;102474.40;;;7.70;99.37
78892;BME280;68368;51.728;5.248;2024-01-30T05:22:22;102488.43;;;7.73;99.31
78892;BME280;68368;51.728;5.248;2024-01-30T05:24:25;102478.20;;;7.74;99.39
78892;BME280;68368;51.728;5.248;2024-01-30T05:26:28;102475.80;;;7.76;99.36
78892;BME280;68368;51.728;5.248;2024-01-30T05:28:31;102477.09;;;7.77;99.26
78892;BME280;68368;51.728;5.248;2024-01-30T05:30:34;102480.32;;;7.79;99.37
78892;BME280;68368;51.728;5.248;2024-01-30T05:32:37;102482.29;;;7.80;99.28
78892;BME280;68368;51.728;5.248;2024-01-30T05:34:40;102482.67;;;7.82;99.17
78892;BME280;68368;51.728;5.248;2024-01-30T05:36:43;102478.48;;;7.84;99.31
78892;BME280;68368;51.728;5.248;2024-01-30T05:38:46;102479.77;;;7.85;99.29
78892;BME280;68368;51.728;5.248;2024-01-30T05:40:51;102483.19;;;7.87;99.18
78892;BME280;68368;51.728;5.248;2024-01-30T05:42:54;102482.54;;;7.89;99.16
78892;BME280;68368;51.728;5.248;2024-01-30T05:44:58;102481.73;;;7.92;99.07
78892;BME280;68368;51.728;5.248;2024-01-30T05:47:00;102477.87;;;7.93;98.96
78892;BME280;68368;51.728;5.248;2024-01-30T05:49:03;102485.86;;;7.95;99.02
78892;BME280;68368;51.728;5.248;2024-01-30T05:51:07;102487.36;;;7.97;99.06
78892;BME280;68368;51.728;5.248;2024-01-30T05:53:10;102486.70;;;8.00;98.98
78892;BME280;68368;51.728;5.248;2024-01-30T05:55:14;102485.19;;;8.02;98.94
78892;BME280;68368;51.728;5.248;2024-01-30T05:57:18;102487.36;;;8.04;98.76
78892;BME280;68368;51.728;5.248;2024-01-30T05:59:21;102485.65;;;8.06;98.64
78892;BME280;68368;51.728;5.248;2024-01-30T06:01:24;102485.50;;;8.07;98.45
78892;BME280;68368;51.728;5.248;2024-01-30T06:03:27;102490.27;;;8.07;98.62
78892;BME280;68368;51.728;5.248;2024-01-30T06:05:30;102495.05;;;8.07;98.70
78892;BME280;68368;51.728;5.248;2024-01-30T06:07:38;102495.58;;;8.08;98.52
78892;BME280;68368;51.728;5.248;2024-01-30T06:09:41;102504.27;;;8.09;98.65
78892;BME280;68368;51.728;5.248;2024-01-30T06:11:46;102503.61;;;8.10;98.68
78892;BME280;68368;51.728;5.248;2024-01-30T06:13:51;102501.37;;;8.12;98.62
78892;BME280;68368;51.728;5.248;2024-01-30T06:15:54;102503.17;;;8.13;98.49
78892;BME280;68368;51.728;5.248;2024-01-30T06:17:57;102504.44;;;8.14;98.42
78892;BME280;68368;51.728;5.248;2024-01-30T06:20:00;102497.92;;;8.15;98.43
78892;BME280;68368;51.728;5.248;2024-01-30T06:22:05;102497.92;;;8.15;98.23
78892;BME280;68368;51.728;5.248;2024-01-30T06:24:08;102497.75;;;8.15;98.20
78892;BME280;68368;51.728;5.248;2024-01-30T06:26:11;102499.87;;;8.15;98.12
78892;BME280;68368;51.728;5.248;2024-01-30T06:28:16;102503.41;;;8.16;98.30
78892;BME280;68368;51.728;5.248;2024-01-30T06:30:19;102500.23;;;8.16;98.26
78892;BME280;68368;51.728;5.248;2024-01-30T06:32:23;102498.83;;;8.17;98.26
78892;BME280;68368;51.728;5.248;2024-01-30T06:34:26;102495.14;;;8.18;98.20
78892;BME280;68368;51.728;5.248;2024-01-30T06:36:28;102493.92;;;8.18;98.26
78892;BME280;68368;51.728;5.248;2024-01-30T06:38:31;102502.77;;;8.18;98.30
78892;BME280;68368;51.728;5.248;2024-01-30T06:40:35;102495.00;;;8.19;98.31
78892;BME280;68368;51.728;5.248;2024-01-30T06:42:37;102499.61;;;8.19;98.11
78892;BME280;68368;51.728;5.248;2024-01-30T06:44:43;102508.45;;;8.20;98.09
78892;BME280;68368;51.728;5.248;2024-01-30T06:46:46;102516.13;;;8.22;98.28
78892;BME280;68368;51.728;5.248;2024-01-30T06:48:49;102523.80;;;8.23;98.32
78892;BME280;68368;51.728;5.248;2024-01-30T06:50:54;102518.88;;;8.25;98.39
78892;BME280;68368;51.728;5.248;2024-01-30T06:52:56;102521.40;;;8.27;98.32
78892;BME280;68368;51.728;5.248;2024-01-30T06:54:59;102525.67;;;8.28;98.37
78892;BME280;68368;51.728;5.248;2024-01-30T06:57:03;102527.45;;;8.29;98.30
78892;BME280;68368;51.728;5.248;2024-01-30T06:59:06;102520.58;;;8.29;98.18
78892;BME280;68368;51.728;5.248;2024-01-30T07:01:10;102531.23;;;8.30;98.10
78892;BME280;68368;51.728;5.248;2024-01-30T07:03:13;102531.77;;;8.31;98.26
78892;BME280;68368;51.728;5.248;2024-01-30T07:05:16;102534.61;;;8.32;98.23
78892;BME280;68368;51.728;5.248;2024-01-30T07:07:20;102533.40;;;8.32;98.37
78892;BME280;68368;51.728;5.248;2024-01-30T07:09:22;102529.52;;;8.33;98.42
78892;BME280;68368;51.728;5.248;2024-01-30T07:11:25;102529.90;;;8.34;98.44
78892;BME280;68368;51.728;5.248;2024-01-30T07:13:29;102536.46;;;8.34;98.55
78892;BME280;68368;51.728;5.248;2024-01-30T07:15:34;102537.77;;;8.37;98.70
78892;BME280;68368;51.728;5.248;2024-01-30T07:17:39;102539.65;;;8.40;98.94
78892;BME280;68368;51.728;5.248;2024-01-30T07:19:43;102537.48;;;8.45;98.93
78892;BME280;68368;51.728;5.248;2024-01-30T07:21:46;102540.21;;;8.48;98.96
78892;BME280;68368;51.728;5.248;2024-01-30T07:23:49;102546.66;;;8.52;98.88
78892;BME280;68368;51.728;5.248;2024-01-30T07:25:52;102549.92;;;8.54;98.95
78892;BME280;68368;51.728;5.248;2024-01-30T07:27:57;102551.41;;;8.57;99.04
78892;BME280;68368;51.728;5.248;2024-01-30T07:30:00;102548.48;;;8.59;98.97
78892;BME280;68368;51.728;5.248;2024-01-30T07:32:05;102547.50;;;8.63;99.01
78892;BME280;68368;51.728;5.248;2024-01-30T07:34:08;102545.63;;;8.66;98.84
78892;BME280;68368;51.728;5.248;2024-01-30T07:36:11;102551.34;;;8.68;98.85
78892;BME280;68368;51.728;5.248;2024-01-30T07:38:14;102555.69;;;8.72;98.75
78892;BME280;68368;51.728;5.248;2024-01-30T07:40:21;102555.40;;;8.75;98.70
78892;BME280;68368;51.728;5.248;2024-01-30T07:42:24;102563.94;;;8.76;98.66
78892;BME280;68368;51.728;5.248;2024-01-30T07:44:28;102559.18;;;8.77;98.69
78892;BME280;68368;51.728;5.248;2024-01-30T07:46:31;102562.25;;;8.79;98.72
78892;BME280;68368;51.728;5.248;2024-01-30T07:48:34;102561.42;;;8.81;98.80
78892;BME280;68368;51.728;5.248;2024-01-30T07:50:38;102565.20;;;8.84;98.74
78892;BME280;68368;51.728;5.248;2024-01-30T07:52:50;102562.60;;;8.87;98.85
78892;BME280;68368;51.728;5.248;2024-01-30T07:54:55;102568.71;;;8.90;98.77
78892;BME280;68368;51.728;5.248;2024-01-30T07:56:59;102568.92;;;8.92;98.85
78892;BME280;68368;51.728;5.248;2024-01-30T07:59:02;102573.77;;;8.94;98.87
78892;BME280;68368;51.728;5.248;2024-01-30T08:01:05;102579.88;;;8.98;98.86
78892;BME280;68368;51.728;5.248;2024-01-30T08:03:08;102576.94;;;9.01;98.82
78892;BME280;68368;51.728;5.248;2024-01-30T08:05:12;102573.65;;;9.04;98.81
78892;BME280;68368;51.728;5.248;2024-01-30T08:07:15;102575.55;;;9.09;99.01
78892;BME280;68368;51.728;5.248;2024-01-30T08:09:18;102576.33;;;9.13;98.90
78892;BME280;68368;51.728;5.248;2024-01-30T08:11:23;102578.73;;;9.16;98.78
78892;BME280;68368;51.728;5.248;2024-01-30T08:13:26;102577.58;;;9.20;98.90
78892;BME280;68368;51.728;5.248;2024-01-30T08:15:29;102582.31;;;9.25;98.69
78892;BME280;68368;51.728;5.248;2024-01-30T08:17:32;102581.02;;;9.31;98.63
78892;BME280;68368;51.728;5.248;2024-01-30T08:19:37;102584.36;;;9.37;98.39
78892;BME280;68368;51.728;5.248;2024-01-30T08:21:42;102590.16;;;9.43;98.38
78892;BME280;68368;51.728;5.248;2024-01-30T08:23:46;102590.64;;;9.49;98.36
78892;BME280;68368;51.728;5.248;2024-01-30T08:25:49;102590.77;;;9.54;98.17
78892;BME280;68368;51.728;5.248;2024-01-30T08:27:54;102590.14;;;9.58;97.96
78892;BME280;68368;51.728;5.248;2024-01-30T08:29:57;102591.66;;;9.62;98.07
78892;BME280;68368;51.728;5.248;2024-01-30T08:32:00;102591.23;;;9.67;97.94
78892;BME280;68368;51.728;5.248;2024-01-30T08:34:03;102589.56;;;9.72;97.77
78892;BME280;68368;51.728;5.248;2024-01-30T08:36:07;102583.64;;;9.78;97.49
78892;BME280;68368;51.728;5.248;2024-01-30T08:38:11;102583.05;;;9.83;97.45
78892;BME280;68368;51.728;5.248;2024-01-30T08:40:14;102581.05;;;9.88;97.28
78892;BME280;68368;51.728;5.248;2024-01-30T08:42:17;102579.91;;;9.94;96.99
78892;BME280;68368;51.728;5.248;2024-01-30T08:44:20;102574.02;;;10.00;96.92
78892;BME280;68368;51.728;5.248;2024-01-30T08:46:23;102573.59;;;10.06;96.72
78892;BME280;68368;51.728;5.248;2024-01-30T08:48:26;102574.96;;;10.12;96.52
78892;BME280;68368;51.728;5.248;2024-01-30T08:50:30;102577.21;;;10.19;96.38
78892;BME280;68368;51.728;5.248;2024-01-30T08:52:33;102575.34;;;10.23;96.27
78892;BME280;68368;51.728;5.248;2024-01-30T08:54:36;102572.60;;;10.27;96.08
78892;BME280;68368;51.728;5.248;2024-01-30T08:56:42;102577.64;;;10.30;96.05
78892;BME280;68368;51.728;5.248;2024-01-30T08:58:44;102580.20;;;10.34;95.93
78892;BME280;68368;51.728;5.248;2024-01-30T09:00:48;102575.46;;;10.37;95.80
78892;BME280;68368;51.728;5.248;2024-01-30T09:02:51;102577.83;;;10.40;95.72
78892;BME280;68368;51.728;5.248;2024-01-30T09:04:55;102578.61;;;10.44;95.57
78892;BME280;68368;51.728;5.248;2024-01-30T09:06:59;102581.20;;;10.50;95.32
78892;BME280;68368;51.728;5.248;2024-01-30T09:09:06;102580.98;;;10.57;95.35
78892;BME280;68368;51.728;5.248;2024-01-30T09:11:11;102586.64;;;10.65;95.23
78892;BME280;68368;51.728;5.248;2024-01-30T09:13:15;102590.48;;;10.73;94.69
78892;BME280;68368;51.728;5.248;2024-01-30T09:15:18;102593.10;;;10.79;94.48
78892;BME280;68368;51.728;5.248;2024-01-30T09:17:24;102590.55;;;10.86;94.40
78892;BME280;68368;51.728;5.248;2024-01-30T09:19:27;102595.95;;;10.92;94.37
78892;BME280;68368;51.728;5.248;2024-01-30T09:21:30;102596.55;;;10.94;93.83
78892;BME280;68368;51.728;5.248;2024-01-30T09:23:34;102604.61;;;10.98;93.82
78892;BME280;68368;51.728;5.248;2024-01-30T09:25:38;102602.05;;;11.04;93.55
78892;BME280;68368;51.728;5.248;2024-01-30T09:27:40;102606.91;;;11.09;93.29
78892;BME280;68368;51.728;5.248;2024-01-30T09:29:44;102602.86;;;11.11;93.19
78892;BME280;68368;51.728;5.248;2024-01-30T09:31:48;102607.18;;;11.16;93.11
78892;BME280;68368;51.728;5.248;2024-01-30T09:33:51;102605.83;;;11.19;92.82
78892;BME280;68368;51.728;5.248;2024-01-30T09:35:54;102606.92;;;11.21;92.77
78892;BME280;68368;51.728;5.248;2024-01-30T09:37:57;102612.08;;;11.21;92.96
78892;BME280;68368;51.728;5.248;2024-01-30T09:40:00;102605.64;;;11.19;92.50
78892;BME280;68368;51.728;5.248;2024-01-30T09:42:10;102608.79;;;11.16;92.29
78892;BME280;68368;51.728;5.248;2024-01-30T09:44:16;102602.88;;;11.13;92.08
78892;BME280;68368;51.728;5.248;2024-01-30T09:46:22;102603.05;;;11.14;91.94
78892;BME280;68368;51.728;5.248;2024-01-30T09:48:27;102607.72;;;11.16;92.16
78892;BME280;68368;51.728;5.248;2024-01-30T09:50:30;102615.03;;;11.17;92.10
78892;BME280;68368;51.728;5.248;2024-01-30T09:52:33;102613.99;;;11.18;91.99
78892;BME280;68368;51.728;5.248;2024-01-30T09:54:38;102616.52;;;11.21;91.98
78892;BME280;68368;51.728;5.248;2024-01-30T09:56:42;102611.23;;;11.24;91.96
78892;BME280;68368;51.728;5.248;2024-01-30T09:58:45;102615.85;;;11.25;91.97
78892;BME280;68368;51.728;5.248;2024-01-30T10:00:50;102627.60;;;11.25;91.93
78892;BME280;68368;51.728;5.248;2024-01-30T10:02:56;102625.15;;;11.27;91.81
78892;BME280;68368;51.728;5.248;2024-01-30T10:05:00;102625.92;;;11.31;91.84
78892;BME280;68368;51.728;5.248;2024-01-30T10:07:04;102625.98;;;11.36;91.70
78892;BME280;68368;51.728;5.248;2024-01-30T10:09:08;102631.55;;;11.39;91.63
78892;BME280;68368;51.728;5.248;2024-01-30T10:11:11;102629.64;;;11.42;91.56
78892;BME280;68368;51.728;5.248;2024-01-30T10:13:17;102628.09;;;11.45;91.53
78892;BME280;68368;51.728;5.248;2024-01-30T10:15:21;102630.11;;;11.50;91.28
78892;BME280;68368;51.728;5.248;2024-01-30T10:17:29;102630.94;;;11.57;91.02
78892;BME280;68368;51.728;5.248;2024-01-30T10:19:32;102634.77;;;11.64;90.85
78892;BME280;68368;51.728;5.248;2024-01-30T10:21:35;102636.45;;;11.69;90.81
78892;BME280;68368;51.728;5.248;2024-01-30T10:23:39;102642.16;;;11.70;90.57
78892;BME280;68368;51.728;5.248;2024-01-30T10:25:42;102640.95;;;11.72;90.68
78892;BME280;68368;51.728;5.248;2024-01-30T10:27:46;102630.65;;;11.74;90.05
78892;BME280;68368;51.728;5.248;2024-01-30T10:29:52;102630.39;;;11.81;89.78
78892;BME280;68368;51.728;5.248;2024-01-30T10:32:03;102629.14;;;11.92;89.52
78892;BME280;68368;51.728;5.248;2024-01-30T10:34:06;102631.10;;;12.05;89.25
78892;BME280;68368;51.728;5.248;2024-01-30T10:36:12;102625.38;;;12.17;88.39
78892;BME280;68368;51.728;5.248;2024-01-30T10:38:18;102629.05;;;12.28;87.72
78892;BME280;68368;51.728;5.248;2024-01-30T10:40:22;102630.92;;;12.35;87.00
78892;BME280;68368;51.728;5.248;2024-01-30T10:42:32;102633.86;;;12.43;86.70
78892;BME280;68368;51.728;5.248;2024-01-30T10:44:48;102632.69;;;12.51;86.75
78892;BME280;68368;51.728;5.248;2024-01-30T10:47:02;102631.70;;;12.59;86.28
78892;BME280;68368;51.728;5.248;2024-01-30T10:49:08;102632.61;;;12.61;86.18
78892;BME280;68368;51.728;5.248;2024-01-30T10:51:14;102637.10;;;12.64;85.66